createdAt,value
2018-07-04T00:00:28.925Z,17.58
2018-07-04T00:01:39.163Z,17.45
2018-07-04T00:02:49.420Z,17.5
2018-07-04T00:03:59.553Z,17.46
2018-07-04T00:05:09.821Z,17.46
2018-07-04T00:06:19.989Z,17.36
2018-07-04T00:07:30.460Z,17.47
2018-07-04T00:08:40.403Z,17.47
2018-07-04T00:09:50.870Z,17.45
2018-07-04T00:11:00.987Z,17.43
2018-07-04T00:12:11.190Z,17.42
2018-07-04T00:13:21.515Z,17.39
2018-07-04T00:14:31.916Z,17.43
2018-07-04T00:15:42.072Z,17.24
2018-07-04T00:16:52.195Z,17.23
2018-07-04T00:18:02.348Z,17.17
2018-07-04T00:19:12.518Z,17.21
2018-07-04T00:20:22.738Z,17.2
2018-07-04T00:21:32.858Z,17.09
2018-07-04T00:22:42.740Z,17.09
2018-07-04T00:23:52.414Z,17.08
2018-07-04T00:25:02.598Z,17.04
2018-07-04T00:26:12.866Z,17.09
2018-07-04T00:27:23.045Z,17.04
2018-07-04T00:28:32.919Z,16.98
2018-07-04T00:29:43.071Z,17.08
2018-07-04T00:30:53.212Z,16.99
2018-07-04T00:32:03.384Z,16.93
2018-07-04T00:33:13.535Z,16.84
2018-07-04T00:34:23.532Z,16.93
2018-07-04T00:35:33.781Z,16.94
2018-07-04T00:36:43.935Z,16.91
2018-07-04T00:37:54.096Z,16.86
2018-07-04T00:39:04.277Z,16.87
2018-07-04T00:40:14.136Z,16.82
2018-07-04T00:41:24.274Z,16.84
2018-07-04T00:42:34.636Z,16.82
2018-07-04T00:43:44.752Z,16.75
2018-07-04T00:44:54.881Z,16.74
2018-07-04T00:46:05.076Z,16.69
2018-07-04T00:47:15.487Z,16.68
2018-07-04T00:48:25.623Z,16.8
2018-07-04T00:49:35.481Z,16.76
2018-07-04T00:50:45.638Z,16.76
2018-07-04T00:51:55.845Z,16.72
2018-07-04T00:53:06.000Z,16.66
2018-07-04T00:54:16.229Z,16.69
2018-07-04T00:55:26.420Z,16.66
2018-07-04T00:56:36.571Z,16.68
2018-07-04T00:57:46.793Z,16.68
2018-07-04T00:58:56.845Z,16.51
2018-07-04T01:00:07.033Z,16.57
2018-07-04T01:01:17.191Z,16.54
2018-07-04T01:02:27.309Z,16.51
2018-07-04T01:03:37.474Z,16.56
2018-07-04T01:04:47.617Z,16.65
2018-07-04T01:05:57.902Z,16.59
2018-07-04T01:07:08.068Z,16.59
2018-07-04T01:08:19.265Z,16.59
2018-07-04T01:09:29.536Z,16.61
2018-07-04T01:10:39.478Z,16.59
2018-07-04T01:11:49.388Z,16.59
2018-07-04T01:12:59.550Z,16.56
2018-07-04T01:14:09.734Z,16.61
2018-07-04T01:15:19.620Z,16.61
2018-07-04T01:16:29.876Z,16.59
2018-07-04T01:17:40.084Z,16.57
2018-07-04T01:18:49.975Z,16.56
2018-07-04T01:19:59.735Z,16.53
2018-07-04T01:21:09.887Z,16.46
2018-07-04T01:22:20.028Z,16.5
2018-07-04T01:23:30.428Z,16.47
2018-07-04T01:24:40.584Z,16.39
2018-07-04T01:25:50.547Z,16.46
2018-07-04T01:27:00.674Z,16.47
2018-07-04T01:28:10.537Z,16.42
2018-07-04T01:29:20.663Z,16.44
2018-07-04T01:30:30.839Z,16.46
2018-07-04T01:31:41.967Z,16.31
2018-07-04T01:32:52.116Z,16.32
2018-07-04T01:34:02.244Z,16.32
2018-07-04T01:35:12.414Z,16.34
2018-07-04T01:36:22.683Z,16.32
2018-07-04T01:37:32.614Z,16.28
2018-07-04T01:38:42.405Z,16.27
2018-07-04T01:39:52.559Z,16.25
2018-07-04T01:41:02.689Z,16.21
2018-07-04T01:42:12.875Z,16.2
2018-07-04T01:43:23.022Z,16.29
2018-07-04T01:44:33.259Z,16.21
2018-07-04T01:45:43.484Z,16.21
2018-07-04T01:46:53.617Z,16.17
2018-07-04T01:48:03.515Z,16.21
2018-07-04T01:49:13.399Z,16.11
2018-07-04T01:50:23.514Z,16.06
2018-07-04T01:51:33.857Z,16.06
2018-07-04T01:52:43.928Z,16.2
2018-07-04T01:53:54.073Z,16.06
2018-07-04T01:55:04.266Z,16.09
2018-07-04T01:56:14.596Z,16.16
2018-07-04T01:57:24.461Z,16.11
2018-07-04T01:58:34.234Z,16.07
2018-07-04T01:59:44.112Z,16.11
2018-07-04T02:00:54.286Z,16.06
2018-07-04T02:02:04.535Z,16.01
2018-07-04T02:03:14.653Z,16.01
2018-07-04T02:04:24.776Z,16.01
2018-07-04T02:05:34.952Z,15.94
2018-07-04T02:06:45.117Z,15.82
2018-07-04T02:07:55.320Z,15.89
2018-07-04T02:09:05.611Z,15.78
2018-07-04T02:10:15.840Z,15.87
2018-07-04T02:11:25.993Z,15.82
2018-07-04T02:12:36.180Z,15.82
2018-07-04T02:13:46.078Z,15.72
2018-07-04T02:14:56.586Z,15.73
2018-07-04T02:16:06.788Z,15.76
2018-07-04T02:18:30.536Z,15.82
2018-07-04T02:19:41.897Z,15.66
2018-07-04T02:20:51.792Z,15.63
2018-07-04T02:22:01.172Z,15.64
2018-07-04T02:23:11.282Z,15.64
2018-07-04T02:24:21.417Z,15.55
2018-07-04T02:25:31.604Z,15.61
2018-07-04T02:26:41.704Z,15.61
2018-07-04T02:27:51.960Z,15.57
2018-07-04T02:29:02.146Z,15.53
2018-07-04T02:30:12.413Z,15.54
2018-07-04T02:31:22.837Z,15.43
2018-07-04T02:32:32.596Z,15.42
2018-07-04T02:33:42.741Z,15.43
2018-07-04T02:34:53.836Z,15.36
2018-07-04T02:36:04.041Z,15.43
2018-07-04T02:37:14.262Z,15.38
2018-07-04T02:38:24.145Z,15.39
2018-07-04T02:39:34.004Z,15.39
2018-07-04T02:40:43.879Z,15.32
2018-07-04T02:41:53.825Z,15.33
2018-07-04T02:43:03.995Z,15.21
2018-07-04T02:44:14.143Z,15.27
2018-07-04T02:45:24.309Z,15.29
2018-07-04T02:46:34.220Z,15.23
2018-07-04T02:47:44.180Z,15.21
2018-07-04T02:48:54.453Z,15.24
2018-07-04T02:50:04.691Z,15.25
2018-07-04T02:51:14.815Z,15.25
2018-07-04T02:52:24.953Z,15.2
2018-07-04T02:53:35.291Z,15.14
2018-07-04T02:54:45.429Z,15.09
2018-07-04T02:55:55.594Z,15.08
2018-07-04T02:57:05.746Z,15.05
2018-07-04T02:58:15.510Z,15.02
2018-07-04T02:59:25.404Z,15.09
2018-07-04T03:00:35.519Z,15.06
2018-07-04T03:01:45.673Z,15.02
2018-07-04T03:02:55.819Z,14.98
2018-07-04T03:04:05.686Z,15.11
2018-07-04T03:05:16.083Z,15.06
2018-07-04T03:06:26.214Z,15.06
2018-07-04T03:07:36.431Z,15.03
2018-07-04T03:08:46.549Z,15.09
2018-07-04T03:09:56.917Z,14.96
2018-07-04T03:11:06.766Z,14.98
2018-07-04T03:12:16.378Z,14.93
2018-07-04T03:13:26.304Z,15.02
2018-07-04T03:14:36.477Z,15.02
2018-07-04T03:15:46.683Z,14.95
2018-07-04T03:16:56.963Z,15
2018-07-04T03:18:07.115Z,14.98
2018-07-04T03:19:17.327Z,14.9
2018-07-04T03:20:27.658Z,14.88
2018-07-04T03:21:38.023Z,14.83
2018-07-04T03:23:59.526Z,14.9
2018-07-04T03:25:09.672Z,14.87
2018-07-04T03:26:19.817Z,14.81
2018-07-04T03:27:30.165Z,14.81
2018-07-04T03:28:40.291Z,14.8
2018-07-04T03:29:50.152Z,14.78
2018-07-04T03:31:00.276Z,14.8
2018-07-04T03:32:10.440Z,14.87
2018-07-04T03:33:20.591Z,14.85
2018-07-04T03:34:30.735Z,14.78
2018-07-04T03:35:40.625Z,14.83
2018-07-04T03:36:50.769Z,14.81
2018-07-04T03:38:00.445Z,14.83
2018-07-04T03:39:10.630Z,14.78
2018-07-04T03:40:20.445Z,14.8
2018-07-04T03:41:30.643Z,14.78
2018-07-04T03:42:40.539Z,14.81
2018-07-04T03:43:50.674Z,14.75
2018-07-04T03:45:00.851Z,14.77
2018-07-04T03:46:11.084Z,14.75
2018-07-04T03:47:21.079Z,14.72
2018-07-04T03:48:30.995Z,14.74
2018-07-04T03:49:41.131Z,14.72
2018-07-04T03:50:51.357Z,14.75
2018-07-04T03:52:01.542Z,14.81
2018-07-04T03:53:12.365Z,14.78
2018-07-04T03:54:22.522Z,14.78
2018-07-04T03:55:32.723Z,14.83
2018-07-04T03:56:42.876Z,14.83
2018-07-04T03:57:52.999Z,14.85
2018-07-04T03:59:03.139Z,14.83
2018-07-04T04:00:13.267Z,14.81
2018-07-04T04:01:23.417Z,14.78
2018-07-04T04:02:33.831Z,14.78
2018-07-04T04:03:44.190Z,14.78
2018-07-04T04:04:54.427Z,14.83
2018-07-04T04:06:04.550Z,14.81
2018-07-04T04:07:14.541Z,14.83
2018-07-04T04:08:24.787Z,14.85
2018-07-04T04:09:35.006Z,14.85
2018-07-04T04:10:45.178Z,14.78
2018-07-04T04:11:55.304Z,14.81
2018-07-04T04:13:05.418Z,14.87
2018-07-04T04:14:15.538Z,14.83
2018-07-04T04:15:26.690Z,14.88
2018-07-04T04:16:36.852Z,14.87
2018-07-04T04:17:47.020Z,14.88
2018-07-04T04:18:57.398Z,14.88
2018-07-04T04:20:07.537Z,14.91
2018-07-04T04:21:17.772Z,14.91
2018-07-04T04:22:27.932Z,14.99
2018-07-04T04:23:38.143Z,14.9
2018-07-04T04:24:48.388Z,14.99
2018-07-04T04:25:58.506Z,14.98
2018-07-04T04:27:08.945Z,15
2018-07-04T04:28:19.259Z,14.93
2018-07-04T04:29:29.381Z,15.06
2018-07-04T04:30:39.556Z,15.09
2018-07-04T04:31:49.710Z,15.13
2018-07-04T04:32:59.930Z,15.05
2018-07-04T04:34:10.194Z,15.18
2018-07-04T04:35:20.365Z,15.09
2018-07-04T04:36:30.723Z,15.11
2018-07-04T04:37:40.904Z,15.14
2018-07-04T04:38:50.781Z,15.24
2018-07-04T04:40:00.740Z,15.25
2018-07-04T04:41:10.604Z,15.24
2018-07-04T04:42:20.414Z,15.2
2018-07-04T04:43:30.702Z,15.27
2018-07-04T04:44:40.837Z,15.4
2018-07-04T04:45:51.680Z,15.4
2018-07-04T04:47:01.848Z,15.38
2018-07-04T04:48:12.202Z,15.43
2018-07-04T04:49:22.391Z,15.54
2018-07-04T04:50:32.522Z,15.64
2018-07-04T04:51:42.648Z,15.58
2018-07-04T04:52:52.786Z,15.7
2018-07-04T04:54:02.928Z,15.68
2018-07-04T04:55:13.212Z,15.76
2018-07-04T04:56:23.418Z,15.82
2018-07-04T04:57:33.762Z,15.8
2018-07-04T04:58:43.889Z,15.84
2018-07-04T04:59:54.110Z,15.91
2018-07-04T05:01:04.320Z,15.94
2018-07-04T05:02:14.560Z,15.98
2018-07-04T05:03:24.439Z,15.94
2018-07-04T05:04:34.298Z,16.07
2018-07-04T05:05:44.661Z,16.04
2018-07-04T05:06:54.879Z,16.1
2018-07-04T05:08:05.212Z,16.17
2018-07-04T05:09:15.361Z,16.16
2018-07-04T05:10:25.748Z,16.21
2018-07-04T05:11:35.878Z,16.27
2018-07-04T05:12:46.006Z,16.35
2018-07-04T05:13:55.893Z,16.42
2018-07-04T05:15:05.764Z,16.44
2018-07-04T05:16:15.883Z,16.39
2018-07-04T05:17:26.007Z,16.46
2018-07-04T05:18:36.146Z,16.49
2018-07-04T05:19:47.280Z,16.53
2018-07-04T05:20:57.211Z,16.54
2018-07-04T05:22:07.402Z,16.71
2018-07-04T05:23:17.275Z,16.71
2018-07-04T05:24:27.425Z,16.79
2018-07-04T05:25:37.567Z,16.66
2018-07-04T05:26:47.456Z,16.8
2018-07-04T05:27:57.596Z,16.87
2018-07-04T05:29:07.780Z,16.86
2018-07-04T05:30:17.951Z,16.9
2018-07-04T05:31:28.141Z,16.96
2018-07-04T05:32:38.010Z,17.02
2018-07-04T05:33:47.907Z,16.99
2018-07-04T05:34:58.023Z,17.08
2018-07-04T05:36:08.238Z,17.06
2018-07-04T05:37:18.474Z,17.09
2018-07-04T05:38:28.788Z,17.19
2018-07-04T05:39:38.902Z,17.17
2018-07-04T05:40:48.950Z,17.16
2018-07-04T05:41:59.818Z,17.23
2018-07-04T05:43:09.705Z,17.28
2018-07-04T05:44:19.892Z,17.36
2018-07-04T05:45:29.580Z,17.31
2018-07-04T05:46:39.748Z,17.39
2018-07-04T05:47:49.922Z,17.42
2018-07-04T05:49:01.046Z,17.39
2018-07-04T05:50:11.219Z,17.43
2018-07-04T05:51:22.335Z,17.45
2018-07-04T05:52:32.137Z,17.49
2018-07-04T05:53:42.607Z,17.43
2018-07-04T05:54:52.737Z,17.47
2018-07-04T05:56:02.869Z,17.49
2018-07-04T05:57:13.069Z,17.47
2018-07-04T05:58:23.209Z,17.47
2018-07-04T05:59:33.452Z,17.5
2018-07-04T06:00:43.627Z,17.47
2018-07-04T06:01:53.959Z,17.57
2018-07-04T06:03:04.198Z,17.65
2018-07-04T06:04:14.333Z,17.75
2018-07-04T06:05:24.599Z,17.7
2018-07-04T06:06:34.825Z,17.87
2018-07-04T06:07:44.603Z,17.91
2018-07-04T06:08:54.853Z,17.86
2018-07-04T06:10:04.788Z,18.05
2018-07-04T06:11:14.918Z,18.02
2018-07-04T06:12:25.044Z,18.04
2018-07-04T06:13:35.176Z,17.98
2018-07-04T06:14:45.326Z,18.07
2018-07-04T06:15:55.499Z,18.1
2018-07-04T06:17:05.913Z,18.12
2018-07-04T06:18:16.072Z,18.12
2018-07-04T06:19:26.310Z,18.17
2018-07-04T06:20:36.443Z,18.26
2018-07-04T06:21:46.825Z,18.26
2018-07-04T06:22:57.579Z,18.31
2018-07-04T06:24:07.494Z,18.35
2018-07-04T06:25:17.642Z,18.4
2018-07-04T06:26:27.811Z,18.28
2018-07-04T06:27:37.971Z,18.34
2018-07-04T06:28:48.102Z,18.38
2018-07-04T06:29:58.299Z,18.46
2018-07-04T06:31:08.485Z,18.46
2018-07-04T06:32:18.716Z,18.41
2018-07-04T06:33:29.055Z,18.52
2018-07-04T06:34:39.209Z,18.56
2018-07-04T06:35:49.379Z,18.56
2018-07-04T06:36:59.647Z,18.6
2018-07-04T06:38:09.805Z,18.56
2018-07-04T06:39:20.041Z,18.71
2018-07-04T06:40:29.998Z,18.67
2018-07-04T06:41:40.160Z,18.79
2018-07-04T06:42:50.476Z,18.87
2018-07-04T06:44:00.592Z,18.9
2018-07-04T06:45:10.489Z,18.97
2018-07-04T06:46:20.619Z,19
2018-07-04T06:47:30.726Z,18.98
2018-07-04T06:48:40.865Z,19.05
2018-07-04T06:49:51.051Z,19.1
2018-07-04T06:51:01.305Z,19.1
2018-07-04T06:52:11.510Z,19.15
2018-07-04T06:53:21.716Z,19.18
2018-07-04T06:54:32.226Z,19.09
2018-07-04T06:55:42.577Z,19.18
2018-07-04T06:56:52.861Z,19.21
2018-07-04T06:58:03.167Z,19.12
2018-07-04T06:59:13.327Z,19.12
2018-07-04T07:00:22.962Z,19.18
2018-07-04T07:01:33.379Z,19.15
2018-07-04T07:02:43.506Z,19.18
2018-07-04T07:03:53.375Z,19.19
2018-07-04T07:05:03.505Z,19.25
2018-07-04T07:06:13.629Z,19.37
2018-07-04T07:07:23.824Z,19.23
2018-07-04T07:08:33.793Z,19.33
2018-07-04T07:09:44.281Z,19.37
2018-07-04T07:10:54.494Z,19.35
2018-07-04T07:12:05.628Z,19.31
2018-07-04T07:13:15.526Z,19.49
2018-07-04T07:14:26.097Z,19.52
2018-07-04T07:15:36.429Z,19.58
2018-07-04T07:16:46.663Z,19.5
2018-07-04T07:17:57.085Z,19.65
2018-07-04T07:19:06.965Z,19.68
2018-07-04T07:20:17.341Z,19.7
2018-07-04T07:21:27.211Z,19.64
2018-07-04T07:22:37.346Z,19.73
2018-07-04T07:23:47.547Z,19.68
2018-07-04T07:24:57.726Z,19.83
2018-07-04T07:26:07.971Z,19.86
2018-07-04T07:27:17.841Z,19.86
2018-07-04T07:28:28.013Z,19.9
2018-07-04T07:29:38.142Z,19.93
2018-07-04T07:30:48.305Z,19.98
2018-07-04T07:31:58.733Z,19.98
2018-07-04T07:33:08.456Z,19.97
2018-07-04T07:34:19.086Z,20.05
2018-07-04T07:35:29.743Z,20.04
2018-07-04T07:36:40.052Z,20.03
2018-07-04T07:37:49.940Z,20.11
2018-07-04T07:39:00.095Z,20.14
2018-07-04T07:40:10.288Z,20.12
2018-07-04T07:41:20.419Z,20.19
2018-07-04T07:42:31.528Z,20.24
2018-07-04T07:43:41.676Z,20.31
2018-07-04T07:44:51.941Z,20.27
2018-07-04T07:46:02.106Z,20.36
2018-07-04T07:47:11.782Z,20.39
2018-07-04T07:48:21.927Z,20.42
2018-07-04T07:49:32.088Z,20.43
2018-07-04T07:50:42.237Z,20.39
2018-07-04T07:51:52.576Z,20.48
2018-07-04T07:53:02.739Z,20.56
2018-07-04T07:54:12.432Z,20.54
2018-07-04T07:55:23.223Z,20.58
2018-07-04T07:56:33.350Z,20.64
2018-07-04T07:57:44.466Z,20.72
2018-07-04T07:58:54.598Z,20.82
2018-07-04T08:00:04.546Z,20.83
2018-07-04T08:01:14.715Z,20.81
2018-07-04T08:02:24.869Z,20.86
2018-07-04T08:03:35.042Z,20.98
2018-07-04T08:04:45.304Z,20.98
2018-07-04T08:05:55.384Z,21.01
2018-07-04T08:07:05.937Z,21.09
2018-07-04T08:08:16.074Z,21.01
2018-07-04T08:09:26.254Z,21.08
2018-07-04T08:10:36.460Z,21.2
2018-07-04T08:11:46.674Z,21.22
2018-07-04T08:12:57.125Z,21.2
2018-07-04T08:14:07.257Z,21.22
2018-07-04T08:15:17.200Z,21.34
2018-07-04T08:16:27.427Z,21.38
2018-07-04T08:17:37.699Z,21.37
2018-07-04T08:18:47.739Z,21.41
2018-07-04T08:19:58.216Z,21.53
2018-07-04T08:21:08.412Z,21.58
2018-07-04T08:22:18.601Z,21.54
2018-07-04T08:23:28.812Z,21.56
2018-07-04T08:24:38.709Z,21.6
2018-07-04T08:25:48.600Z,21.73
2018-07-04T08:26:58.761Z,21.91
2018-07-04T08:28:08.912Z,21.87
2018-07-04T08:29:19.068Z,21.93
2018-07-04T08:30:29.227Z,22.02
2018-07-04T08:31:39.110Z,22.02
2018-07-04T08:32:49.271Z,22.12
2018-07-04T08:34:00.386Z,22.2
2018-07-04T08:35:10.539Z,22.35
2018-07-04T08:36:20.753Z,22.45
2018-07-04T08:37:30.955Z,22.61
2018-07-04T08:38:41.388Z,22.64
2018-07-04T08:39:51.520Z,22.8
2018-07-04T08:41:01.677Z,22.83
2018-07-04T08:42:11.829Z,23.05
2018-07-04T08:43:21.981Z,23.13
2018-07-04T08:44:32.125Z,23.16
2018-07-04T08:45:42.375Z,23.32
2018-07-04T08:46:52.539Z,23.51
2018-07-04T08:48:02.703Z,23.63
2018-07-04T08:49:12.843Z,23.69
2018-07-04T08:50:23.262Z,23.82
2018-07-04T08:51:33.410Z,23.98
2018-07-04T08:52:43.683Z,24.07
2018-07-04T08:53:54.083Z,24.2
2018-07-04T08:55:04.170Z,24.38
2018-07-04T08:56:14.319Z,24.57
2018-07-04T08:57:24.260Z,24.73
2018-07-04T08:58:34.554Z,24.85
2018-07-04T08:59:45.060Z,25.06
2018-07-04T09:00:55.256Z,25.37
2018-07-04T09:02:05.470Z,25.97
2018-07-04T09:03:17.337Z,26.61
2018-07-04T09:04:27.551Z,27.3
2018-07-04T09:05:37.957Z,27.83
2018-07-04T09:06:47.936Z,28.46
2018-07-04T09:07:58.321Z,28.89
2018-07-04T09:09:08.481Z,29.5
2018-07-04T09:10:18.679Z,29.94
2018-07-04T09:11:29.019Z,30.35
2018-07-04T09:12:39.498Z,30.63
2018-07-04T09:13:49.403Z,31.12
2018-07-04T09:14:59.575Z,31.4
2018-07-04T09:16:09.747Z,31.6
2018-07-04T09:17:20.251Z,31.88
2018-07-04T09:18:30.399Z,32.11
2018-07-04T09:19:40.561Z,32.43
2018-07-04T09:20:50.757Z,32.62
2018-07-04T09:22:01.113Z,32.66
2018-07-04T09:23:11.048Z,32.96
2018-07-04T09:24:20.669Z,33.05
2018-07-04T09:25:30.820Z,33.23
2018-07-04T09:26:40.967Z,33.44
2018-07-04T09:27:51.157Z,33.61
2018-07-04T09:29:01.413Z,33.87
2018-07-04T09:30:11.567Z,33.97
2018-07-04T09:31:21.458Z,33.93
2018-07-04T09:32:32.750Z,33.94
2018-07-04T09:33:45.298Z,33.98
2018-07-04T09:36:17.867Z,33.95
2018-07-04T09:37:28.022Z,34.08
2018-07-04T09:38:38.291Z,34.1
2018-07-04T09:39:49.430Z,34.1
2018-07-04T09:40:59.642Z,34.22
2018-07-04T09:42:09.786Z,34.33
2018-07-04T09:43:21.166Z,34.36
2018-07-04T09:44:32.633Z,34.36
2018-07-04T09:45:42.555Z,34.43
2018-07-04T09:46:53.694Z,34.48
2018-07-04T09:48:03.840Z,34.29
2018-07-04T09:49:14.134Z,34.09
2018-07-04T09:50:24.354Z,33.97
2018-07-04T09:51:34.745Z,33.87
2018-07-04T09:52:44.916Z,33.95
2018-07-04T09:53:55.087Z,34.03
2018-07-04T09:55:33.964Z,34.09
2018-07-04T09:56:44.508Z,34.12
2018-07-04T09:57:54.607Z,33.95
2018-07-04T09:59:04.412Z,34.01
2018-07-04T10:00:14.580Z,34.08
2018-07-04T10:01:24.485Z,34.19
2018-07-04T10:02:35.856Z,34.16
2018-07-04T10:03:46.021Z,34.15
2018-07-04T10:04:56.397Z,34.2
2018-07-04T10:06:06.575Z,34.39
2018-07-04T10:07:16.571Z,34.55
2018-07-04T10:08:26.740Z,34.6
2018-07-04T10:09:36.917Z,34.44
2018-07-04T10:10:47.062Z,34.27
2018-07-04T10:11:57.251Z,34.05
2018-07-04T10:13:07.426Z,33.69
2018-07-04T10:14:17.706Z,33.45
2018-07-04T10:15:27.865Z,33.11
2018-07-04T10:16:38.063Z,32.77
2018-07-04T10:17:48.256Z,32.72
2018-07-04T10:18:58.436Z,32.66
2018-07-04T10:20:08.616Z,32.88
2018-07-04T10:21:18.865Z,33.03
2018-07-04T10:22:29.066Z,33.19
2018-07-04T10:23:39.304Z,33.08
2018-07-04T10:24:49.531Z,33.05
2018-07-04T10:25:59.720Z,33.13
2018-07-04T10:27:09.943Z,33.34
2018-07-04T10:28:20.139Z,33.34
2018-07-04T10:29:30.147Z,33.38
2018-07-04T10:30:40.078Z,33.38
2018-07-04T10:31:50.322Z,33.47
2018-07-04T10:33:00.496Z,33.6
2018-07-04T10:34:10.733Z,33.61
2018-07-04T10:35:21.005Z,33.38
2018-07-04T10:36:31.410Z,33.37
2018-07-04T10:37:41.313Z,33.48
2018-07-04T10:38:51.608Z,33.42
2018-07-04T10:40:01.868Z,33.38
2018-07-04T10:41:12.069Z,33.35
2018-07-04T10:42:22.301Z,33.45
2018-07-04T10:43:32.524Z,33.59
2018-07-04T10:44:43.769Z,33.63
2018-07-04T10:45:54.151Z,33.61
2018-07-04T10:47:04.311Z,33.64
2018-07-04T10:48:14.479Z,33.64
2018-07-04T10:49:24.733Z,33.82
2018-07-04T10:50:34.906Z,33.93
2018-07-04T10:51:45.276Z,33.91
2018-07-04T10:52:55.449Z,34.08
2018-07-04T10:54:05.628Z,34.12
2018-07-04T10:55:16.803Z,34.08
2018-07-04T10:56:27.016Z,34.06
2018-07-04T10:57:37.217Z,34.06
2018-07-04T10:58:47.442Z,33.94
2018-07-04T10:59:57.172Z,33.86
2018-07-04T11:01:07.460Z,33.87
2018-07-04T11:02:17.637Z,33.95
2018-07-04T11:03:27.971Z,34
2018-07-04T11:04:38.422Z,34
2018-07-04T11:05:48.854Z,33.94
2018-07-04T11:06:59.102Z,33.91
2018-07-04T11:08:09.259Z,34
2018-07-04T11:09:19.717Z,34.08
2018-07-04T11:10:29.936Z,34.27
2018-07-04T11:11:39.849Z,34.52
2018-07-04T11:12:50.074Z,34.44
2018-07-04T11:14:00.073Z,34.5
2018-07-04T11:15:10.265Z,34.5
2018-07-04T11:16:20.258Z,34.47
2018-07-04T11:17:30.472Z,34.45
2018-07-04T11:18:40.725Z,34.35
2018-07-04T11:19:50.692Z,34.33
2018-07-04T11:21:00.899Z,34.22
2018-07-04T11:22:11.059Z,34.22
2018-07-04T11:23:21.027Z,34.17
2018-07-04T11:24:30.935Z,34.12
2018-07-04T11:25:41.351Z,34.09
2018-07-04T11:26:51.509Z,33.98
2018-07-04T11:28:01.433Z,33.91
2018-07-04T11:29:11.759Z,33.97
2018-07-04T11:30:21.920Z,34.01
2018-07-04T11:31:32.195Z,34.03
2018-07-04T11:32:42.401Z,33.9
2018-07-04T11:33:52.048Z,33.86
2018-07-04T11:35:02.236Z,33.82
2018-07-04T11:36:12.419Z,33.82
2018-07-04T11:37:22.699Z,33.79
2018-07-04T11:38:33.107Z,33.81
2018-07-04T11:39:43.261Z,33.86
2018-07-04T11:40:53.530Z,33.83
2018-07-04T11:42:03.741Z,33.93
2018-07-04T11:43:13.956Z,34.06
2018-07-04T11:44:24.177Z,34.08
2018-07-04T11:45:35.337Z,34.24
2018-07-04T11:46:45.537Z,34.12
2018-07-04T11:47:55.779Z,34.08
2018-07-04T11:49:05.958Z,34
2018-07-04T11:50:16.203Z,33.98
2018-07-04T11:51:26.377Z,33.94
2018-07-04T11:52:36.634Z,33.94
2018-07-04T11:53:46.831Z,33.93
2018-07-04T11:54:57.004Z,33.87
2018-07-04T11:56:07.173Z,34
2018-07-04T11:57:17.370Z,33.95
2018-07-04T11:58:27.582Z,34.03
2018-07-04T11:59:37.756Z,33.91
2018-07-04T12:00:47.912Z,33.9
2018-07-04T12:01:58.157Z,33.88
2018-07-04T12:03:08.350Z,33.86
2018-07-04T12:04:18.154Z,33.75
2018-07-04T12:05:28.326Z,33.82
2018-07-04T12:06:38.864Z,33.81
2018-07-04T12:07:49.182Z,33.87
2018-07-04T12:08:59.423Z,33.83
2018-07-04T12:10:09.657Z,33.86
2018-07-04T12:11:19.824Z,33.93
2018-07-04T12:12:30.077Z,33.91
2018-07-04T12:13:40.344Z,33.93
2018-07-04T12:14:51.514Z,33.97
2018-07-04T12:16:01.687Z,33.98
2018-07-04T12:17:11.863Z,34.03
2018-07-04T12:18:22.093Z,34.05
2018-07-04T12:19:32.261Z,33.98
2018-07-04T12:20:42.463Z,33.91
2018-07-04T12:21:52.705Z,33.86
2018-07-04T12:23:02.974Z,33.81
2018-07-04T12:24:13.202Z,33.71
2018-07-04T12:25:23.395Z,33.6
2018-07-04T12:26:33.313Z,33.61
2018-07-04T12:27:43.714Z,33.48
2018-07-04T12:28:54.088Z,33.39
2018-07-04T12:30:04.271Z,33.35
2018-07-04T12:31:14.463Z,33.31
2018-07-04T12:32:24.721Z,33.19
2018-07-04T12:33:34.892Z,33.15
2018-07-04T12:34:45.185Z,33.07
2018-07-04T12:35:55.375Z,32.98
2018-07-04T12:37:05.275Z,32.92
2018-07-04T12:38:15.570Z,32.88
2018-07-04T12:39:25.757Z,32.85
2018-07-04T12:40:36.052Z,32.7
2018-07-04T12:41:46.339Z,32.54
2018-07-04T12:42:56.180Z,32.46
2018-07-04T12:44:06.482Z,32.25
2018-07-04T12:45:16.434Z,32.19
2018-07-04T12:46:26.087Z,32.09
2018-07-04T12:47:36.280Z,31.98
2018-07-04T12:48:46.439Z,31.84
2018-07-04T12:49:56.594Z,31.8
2018-07-04T12:51:06.668Z,31.65
2018-07-04T12:52:16.897Z,31.31
2018-07-04T12:53:27.108Z,30.91
2018-07-04T12:54:37.581Z,30.81
2018-07-04T12:55:48.224Z,30.6
2018-07-04T12:56:58.387Z,30.61
2018-07-04T12:58:08.583Z,30.49
2018-07-04T12:59:18.912Z,30.35
2018-07-04T13:00:30.212Z,30.33
2018-07-04T13:01:40.389Z,30.3
2018-07-04T13:02:50.562Z,30.35
2018-07-04T13:04:00.653Z,30.37
2018-07-04T13:05:10.926Z,30.42
2018-07-04T13:06:20.908Z,30.29
2018-07-04T13:07:31.111Z,30.33
2018-07-04T13:08:41.312Z,30.35
2018-07-04T13:09:51.232Z,30.37
2018-07-04T13:11:01.462Z,30.33
2018-07-04T13:12:11.724Z,30.44
2018-07-04T13:13:21.901Z,30.39
2018-07-04T13:14:32.085Z,30.37
2018-07-04T13:15:42.349Z,30.3
2018-07-04T13:16:52.644Z,30.35
2018-07-04T13:18:02.841Z,30.26
2018-07-04T13:19:12.786Z,30.27
2018-07-04T13:20:23.105Z,30.35
2018-07-04T13:21:33.280Z,30.23
2018-07-04T13:22:43.433Z,30.25
2018-07-04T13:23:53.595Z,30.25
2018-07-04T13:25:03.513Z,30.38
2018-07-04T13:26:13.687Z,30.32
2018-07-04T13:27:23.869Z,30.35
2018-07-04T13:28:34.033Z,30.35
2018-07-04T13:29:44.234Z,30.23
2018-07-04T13:30:54.390Z,30.25
2018-07-04T13:32:04.762Z,30.19
2018-07-04T13:33:15.316Z,30.07
2018-07-04T13:34:25.577Z,30.11
2018-07-04T13:35:35.843Z,30.11
2018-07-04T13:36:46.021Z,30.11
2018-07-04T13:37:56.209Z,30.1
2018-07-04T13:39:06.364Z,30.11
2018-07-04T13:40:16.562Z,30.07
2018-07-04T13:41:26.827Z,29.94
2018-07-04T13:42:37.094Z,29.89
2018-07-04T13:43:47.276Z,29.75
2018-07-04T13:44:57.547Z,29.55
2018-07-04T13:46:07.760Z,29.45
2018-07-04T13:47:17.970Z,29.38
2018-07-04T13:48:28.184Z,29.32
2018-07-04T13:49:38.050Z,29.29
2018-07-04T13:50:48.095Z,29.35
2018-07-04T13:51:58.337Z,29.29
2018-07-04T13:53:08.524Z,29.43
2018-07-04T13:54:18.823Z,29.48
2018-07-04T13:55:29.027Z,29.48
2018-07-04T13:56:39.296Z,29.63
2018-07-04T13:57:49.218Z,29.67
2018-07-04T13:58:59.387Z,29.72
2018-07-04T14:00:10.372Z,29.7
2018-07-04T14:01:20.277Z,29.67
2018-07-04T14:02:30.504Z,29.62
2018-07-04T14:03:41.000Z,29.6
2018-07-04T14:04:52.731Z,29.67
2018-07-04T14:06:02.941Z,29.7
2018-07-04T14:07:13.140Z,29.69
2018-07-04T14:08:23.334Z,29.73
2018-07-04T14:09:33.492Z,29.7
2018-07-04T14:10:43.666Z,29.72
2018-07-04T14:11:53.897Z,29.76
2018-07-04T14:13:04.281Z,29.67
2018-07-04T14:14:14.499Z,29.72
2018-07-04T14:15:24.691Z,29.77
2018-07-04T14:16:34.869Z,29.84
2018-07-04T14:17:45.054Z,29.73
2018-07-04T14:18:55.343Z,29.76
2018-07-04T14:20:05.688Z,29.75
2018-07-04T14:21:15.625Z,29.54
2018-07-04T14:22:25.834Z,29.47
2018-07-04T14:23:35.985Z,29.38
2018-07-04T14:24:46.160Z,29.35
2018-07-04T14:25:56.324Z,29.29
2018-07-04T14:27:06.494Z,29.39
2018-07-04T14:28:16.289Z,29.33
2018-07-04T14:29:26.256Z,29.31
2018-07-04T14:30:36.416Z,29.35
2018-07-04T14:31:46.581Z,29.4
2018-07-04T14:32:56.583Z,29.47
2018-07-04T14:34:06.829Z,29.5
2018-07-04T14:35:16.764Z,29.54
2018-07-04T14:36:26.926Z,29.48
2018-07-04T14:37:37.117Z,29.55
2018-07-04T14:38:47.362Z,29.55
2018-07-04T14:39:57.475Z,29.44
2018-07-04T14:41:07.635Z,29.45
2018-07-04T14:42:17.799Z,29.47
2018-07-04T14:43:28.062Z,29.47
2018-07-04T14:44:38.291Z,29.51
2018-07-04T14:45:48.727Z,29.47
2018-07-04T14:46:58.729Z,29.45
2018-07-04T14:48:08.968Z,29.47
2018-07-04T14:49:19.195Z,29.44
2018-07-04T14:50:29.099Z,29.39
2018-07-04T14:51:39.254Z,29.38
2018-07-04T14:52:49.467Z,29.36
2018-07-04T14:53:59.726Z,29.36
2018-07-04T14:55:09.916Z,29.4
2018-07-04T14:56:20.087Z,29.31
2018-07-04T14:57:30.322Z,29.43
2018-07-04T14:58:40.145Z,29.31
2018-07-04T14:59:50.073Z,29.35
2018-07-04T15:01:00.243Z,29.29
2018-07-04T15:02:10.666Z,29.32
2018-07-04T15:03:20.636Z,29.17
2018-07-04T15:04:31.455Z,29.23
2018-07-04T15:05:42.092Z,29.28
2018-07-04T15:06:51.670Z,29.29
2018-07-04T15:08:01.825Z,29.18
2018-07-04T15:09:11.726Z,29.18
2018-07-04T15:10:21.780Z,29.1
2018-07-04T15:11:32.064Z,29.01